createdAt,value
2022-12-14T00:00:29.561Z,66.61
2022-12-14T00:01:29.646Z,66.48
2022-12-14T00:02:29.919Z,66.37
2022-12-14T00:03:30.064Z,66.37
2022-12-14T00:04:30.199Z,66.58
2022-12-14T00:05:30.345Z,66.58
2022-12-14T00:06:30.545Z,66.58
2022-12-14T00:07:30.697Z,66.61
2022-12-14T00:08:30.884Z,66.40
2022-12-14T00:09:31.085Z,66.69
2022-12-14T00:10:31.245Z,66.93
2022-12-14T00:11:31.437Z,66.69
2022-12-14T00:12:31.614Z,66.58
2022-12-14T00:13:31.808Z,66.58
2022-12-14T00:14:32.004Z,66.27
2022-12-14T00:15:32.214Z,66.27
2022-12-14T00:16:32.357Z,66.48
2022-12-14T00:17:32.564Z,66.37
2022-12-14T00:18:32.714Z,66.48
2022-12-14T00:19:32.914Z,66.58
2022-12-14T00:20:33.063Z,66.61
2022-12-14T00:21:33.270Z,66.16
2022-12-14T00:22:33.461Z,66.06
2022-12-14T00:23:38.706Z,66.48
2022-12-14T00:24:34.791Z,66.61
2022-12-14T00:25:33.960Z,66.72
2022-12-14T00:26:34.142Z,66.82
2022-12-14T00:27:34.339Z,66.72
2022-12-14T00:28:34.484Z,66.19
2022-12-14T00:29:34.682Z,66.19
2022-12-14T00:30:34.829Z,66.06
2022-12-14T00:31:35.072Z,66.06
2022-12-14T00:32:35.190Z,66.27
2022-12-14T00:33:35.382Z,66.27
2022-12-14T00:34:35.582Z,66.09
2022-12-14T00:35:35.740Z,66.19
2022-12-14T00:36:35.910Z,66.40
2022-12-14T00:37:36.100Z,66.30
2022-12-14T00:38:36.284Z,66.40
2022-12-14T00:39:36.485Z,66.61
2022-12-14T00:40:36.628Z,66.72
2022-12-14T00:41:36.818Z,66.72
2022-12-14T00:42:36.998Z,66.82
2022-12-14T00:43:37.189Z,67.03
2022-12-14T00:44:37.368Z,67.03
2022-12-14T00:45:37.517Z,67.14
2022-12-14T00:46:37.738Z,67.17
2022-12-14T00:47:40.860Z,67.07
2022-12-14T00:48:38.046Z,67.38
2022-12-14T00:49:38.246Z,67.59
2022-12-14T00:50:38.406Z,67.59
2022-12-14T00:51:38.597Z,67.59
2022-12-14T00:52:38.775Z,67.59
2022-12-14T00:53:38.967Z,67.38
2022-12-14T00:54:39.157Z,67.17
2022-12-14T00:55:39.316Z,67.27
2022-12-14T00:56:39.466Z,67.27
2022-12-14T00:57:39.653Z,67.07
2022-12-14T00:58:39.843Z,66.96
2022-12-14T00:59:40.026Z,67.17
2022-12-14T01:00:40.184Z,67.17
2022-12-14T01:01:40.422Z,67.38
2022-12-14T01:02:40.556Z,67.27
2022-12-14T01:03:40.766Z,67.27
2022-12-14T01:04:40.896Z,67.17
2022-12-14T01:05:41.056Z,67.07
2022-12-14T01:06:41.234Z,66.96
2022-12-14T01:07:41.443Z,66.96
2022-12-14T01:08:41.597Z,66.96
2022-12-14T01:09:41.794Z,66.85
2022-12-14T01:10:41.952Z,66.85
2022-12-14T01:11:42.132Z,66.75
2022-12-14T01:12:42.321Z,66.75
2022-12-14T01:13:42.511Z,66.75
2022-12-14T01:14:42.712Z,66.96
2022-12-14T01:15:42.900Z,67.07
2022-12-14T01:16:43.039Z,67.17
2022-12-14T01:17:43.262Z,67.17
2022-12-14T01:18:43.447Z,67.10
2022-12-14T01:19:43.590Z,67.20
2022-12-14T01:20:44.762Z,67.17
2022-12-14T01:21:43.931Z,66.96
2022-12-14T01:22:44.113Z,67.07
2022-12-14T01:23:44.300Z,66.85
2022-12-14T01:24:44.499Z,67.17
2022-12-14T01:25:44.648Z,67.17
2022-12-14T01:26:44.838Z,67.17
2022-12-14T01:27:45.019Z,67.07
2022-12-14T01:28:45.209Z,66.85
2022-12-14T01:29:45.410Z,66.96
2022-12-14T01:30:45.559Z,66.85
2022-12-14T01:31:48.546Z,66.85
2022-12-14T01:32:45.938Z,66.85
2022-12-14T01:33:46.126Z,66.85
2022-12-14T01:34:46.338Z,66.64
2022-12-14T01:35:46.478Z,66.75
2022-12-14T01:36:46.668Z,66.54
2022-12-14T01:37:49.025Z,66.54
2022-12-14T01:38:47.026Z,66.64
2022-12-14T01:39:47.216Z,66.33
2022-12-14T01:40:47.366Z,66.12
2022-12-14T01:41:47.582Z,66.33
2022-12-14T01:42:47.734Z,66.22
2022-12-14T01:43:48.893Z,66.12
2022-12-14T01:44:48.126Z,66.01
2022-12-14T01:45:48.286Z,66.22
2022-12-14T01:46:48.517Z,66.22
2022-12-14T01:47:48.644Z,66.33
2022-12-14T01:48:48.825Z,66.12
2022-12-14T01:49:49.023Z,66.01
2022-12-14T01:50:49.174Z,65.91
2022-12-14T01:51:49.353Z,66.22
2022-12-14T01:52:49.544Z,66.12
2022-12-14T01:53:49.723Z,66.01
2022-12-14T01:54:49.955Z,66.12
2022-12-14T01:55:50.084Z,66.64
2022-12-14T01:56:50.272Z,66.33
2022-12-14T01:57:50.453Z,66.01
2022-12-14T01:58:50.640Z,66.01
2022-12-14T01:59:50.834Z,66.01
2022-12-14T02:00:50.982Z,66.01
2022-12-14T02:01:51.226Z,65.80
2022-12-14T02:02:51.514Z,65.80
2022-12-14T02:03:51.530Z,65.80
2022-12-14T02:04:51.735Z,65.70
2022-12-14T02:05:51.870Z,65.59
2022-12-14T02:06:56.445Z,65.38
2022-12-14T02:07:53.229Z,65.38
2022-12-14T02:08:52.416Z,65.28
2022-12-14T02:09:52.602Z,65.17
2022-12-14T02:10:52.770Z,65.28
2022-12-14T02:11:52.950Z,65.17
2022-12-14T02:12:53.139Z,65.17
2022-12-14T02:13:53.329Z,65.17
2022-12-14T02:14:53.528Z,65.28
2022-12-14T02:15:53.750Z,65.28
2022-12-14T02:16:53.848Z,65.38
2022-12-14T02:17:54.037Z,65.41
2022-12-14T02:18:54.218Z,65.72
2022-12-14T02:19:54.409Z,65.94
2022-12-14T02:20:54.567Z,66.04
2022-12-14T02:21:54.752Z,65.94
2022-12-14T02:22:54.939Z,65.94
2022-12-14T02:23:55.097Z,66.04
2022-12-14T02:24:55.266Z,65.83
2022-12-14T02:25:55.426Z,65.83
2022-12-14T02:26:55.585Z,65.72
2022-12-14T02:27:55.764Z,65.62
2022-12-14T02:28:56.062Z,65.52
2022-12-14T02:29:56.124Z,65.41
2022-12-14T02:30:56.318Z,65.52
2022-12-14T02:31:56.448Z,65.41
2022-12-14T02:32:56.664Z,65.20
2022-12-14T02:33:56.842Z,65.30
2022-12-14T02:34:57.027Z,65.20
2022-12-14T02:35:57.177Z,65.09
2022-12-14T02:36:57.376Z,65.20
2022-12-14T02:37:57.523Z,65.20
2022-12-14T02:38:57.718Z,65.30
2022-12-14T02:39:57.905Z,65.30
2022-12-14T02:40:58.063Z,65.20
2022-12-14T02:41:58.243Z,65.09
2022-12-14T02:42:58.437Z,65.09
2022-12-14T02:43:58.582Z,65.09
2022-12-14T02:44:58.783Z,64.99
2022-12-14T02:45:58.937Z,64.88
2022-12-14T02:46:59.167Z,64.88
2022-12-14T02:47:59.300Z,64.78
2022-12-14T02:48:59.481Z,64.67
2022-12-14T02:49:59.681Z,64.67
2022-12-14T02:50:59.834Z,64.67
2022-12-14T02:52:00.012Z,64.78
2022-12-14T02:53:00.191Z,64.88
2022-12-14T02:54:00.389Z,64.67
2022-12-14T02:55:00.583Z,64.78
2022-12-14T02:56:00.748Z,64.88
2022-12-14T02:57:00.930Z,64.99
2022-12-14T02:58:01.120Z,64.99
2022-12-14T02:59:01.308Z,64.99
2022-12-14T03:00:01.499Z,65.20
2022-12-14T03:01:01.687Z,65.20
2022-12-14T03:02:01.943Z,65.20
2022-12-14T03:03:02.079Z,65.44
2022-12-14T03:04:02.148Z,65.65
2022-12-14T03:05:02.350Z,65.75
2022-12-14T03:06:02.514Z,65.86
2022-12-14T03:07:02.710Z,65.75
2022-12-14T03:08:02.859Z,65.65
2022-12-14T03:09:03.049Z,65.65
2022-12-14T03:10:03.247Z,65.75
2022-12-14T03:11:03.400Z,65.86
2022-12-14T03:12:03.579Z,65.97
2022-12-14T03:13:03.766Z,66.07
2022-12-14T03:14:03.949Z,66.17
2022-12-14T03:15:04.155Z,66.17
2022-12-14T03:16:04.320Z,65.97
2022-12-14T03:17:04.476Z,66.07
2022-12-14T03:18:04.656Z,66.07
2022-12-14T03:19:04.844Z,66.10
2022-12-14T03:20:05.047Z,66.07
2022-12-14T03:21:05.196Z,65.97
2022-12-14T03:22:05.386Z,65.89
2022-12-14T03:23:05.580Z,65.97
2022-12-14T03:24:05.725Z,65.97
2022-12-14T03:25:05.930Z,65.86
2022-12-14T03:26:06.073Z,65.89
2022-12-14T03:27:06.264Z,66.00
2022-12-14T03:28:06.445Z,66.00
2022-12-14T03:29:06.634Z,66.20
2022-12-14T03:30:06.846Z,66.10
2022-12-14T03:31:07.065Z,66.20
2022-12-14T03:32:07.174Z,66.31
2022-12-14T03:33:07.364Z,66.20
2022-12-14T03:34:13.263Z,66.10
2022-12-14T03:35:08.725Z,66.10
2022-12-14T03:36:07.882Z,66.10
2022-12-14T03:37:08.072Z,66.31
2022-12-14T03:38:08.262Z,66.31
2022-12-14T03:39:08.451Z,66.42
2022-12-14T03:40:08.641Z,66.52
2022-12-14T03:41:08.807Z,66.42
2022-12-14T03:42:08.981Z,66.31
2022-12-14T03:43:09.191Z,66.42
2022-12-14T03:44:09.351Z,66.31
2022-12-14T03:45:09.561Z,66.20
2022-12-14T03:46:09.750Z,66.00
2022-12-14T03:47:09.901Z,66.00
2022-12-14T03:48:10.080Z,66.10
2022-12-14T03:49:10.271Z,66.10
2022-12-14T03:50:10.468Z,66.00
2022-12-14T03:51:10.641Z,66.00
2022-12-14T03:52:10.790Z,66.00
2022-12-14T03:53:10.977Z,65.78
2022-12-14T03:54:11.160Z,65.89
2022-12-14T03:55:11.358Z,66.00
2022-12-14T03:56:11.511Z,66.00
2022-12-14T03:57:11.698Z,66.20
2022-12-14T03:58:11.880Z,66.20
2022-12-14T03:59:12.059Z,66.31
2022-12-14T04:00:12.263Z,66.20
2022-12-14T04:01:12.489Z,66.31
2022-12-14T04:02:12.723Z,66.31
2022-12-14T04:03:12.826Z,66.20
2022-12-14T04:04:12.942Z,66.10
2022-12-14T04:05:13.146Z,66.00
2022-12-14T04:06:13.297Z,66.00
2022-12-14T04:07:13.477Z,65.89
2022-12-14T04:08:13.666Z,66.10
2022-12-14T04:09:13.854Z,66.10
2022-12-14T04:10:14.056Z,66.00
2022-12-14T04:11:14.214Z,66.00
2022-12-14T04:12:14.400Z,66.20
2022-12-14T04:13:14.586Z,66.31
2022-12-14T04:14:14.776Z,66.20
2022-12-14T04:15:14.984Z,66.31
2022-12-14T04:16:15.190Z,66.42
2022-12-14T04:17:15.306Z,66.31
2022-12-14T04:18:15.503Z,66.20
2022-12-14T04:19:15.663Z,66.24
2022-12-14T04:20:15.863Z,66.31
2022-12-14T04:21:16.015Z,66.52
2022-12-14T04:22:16.192Z,66.34
2022-12-14T04:23:16.373Z,66.24
2022-12-14T04:24:16.581Z,66.24
2022-12-14T04:25:16.754Z,66.24
2022-12-14T04:26:16.951Z,66.34
2022-12-14T04:27:17.070Z,66.34
2022-12-14T04:28:17.252Z,66.45
2022-12-14T04:29:17.501Z,66.77
2022-12-14T04:30:17.622Z,66.77
2022-12-14T04:31:17.843Z,66.77
2022-12-14T04:32:18.009Z,66.77
2022-12-14T04:33:18.151Z,66.77
2022-12-14T04:34:18.329Z,66.66
2022-12-14T04:35:18.529Z,66.55
2022-12-14T04:36:18.689Z,66.66
2022-12-14T04:37:18.890Z,66.77
2022-12-14T04:38:19.011Z,66.77
2022-12-14T04:39:19.198Z,66.69
2022-12-14T04:40:19.401Z,66.90
2022-12-14T04:41:19.550Z,67.11
2022-12-14T04:42:19.728Z,67.22
2022-12-14T04:43:19.917Z,67.00
2022-12-14T04:44:20.101Z,67.00
2022-12-14T04:45:20.306Z,67.11
2022-12-14T04:46:20.536Z,67.22
2022-12-14T04:47:20.616Z,67.22
2022-12-14T04:48:20.810Z,67.11
2022-12-14T04:49:20.986Z,67.11
2022-12-14T04:50:21.186Z,67.11
2022-12-14T04:51:21.347Z,67.00
2022-12-14T04:52:21.526Z,67.00
2022-12-14T04:53:21.716Z,67.11
2022-12-14T04:54:21.866Z,67.32
2022-12-14T04:55:22.073Z,67.32
2022-12-14T04:56:22.220Z,67.22
2022-12-14T04:57:22.408Z,67.00
2022-12-14T04:58:22.584Z,66.90
2022-12-14T04:59:22.773Z,67.00
2022-12-14T05:00:22.964Z,67.22
2022-12-14T05:01:23.144Z,67.11
2022-12-14T05:02:23.417Z,67.22
2022-12-14T05:03:23.464Z,67.32
2022-12-14T05:04:23.643Z,67.32
2022-12-14T05:05:23.863Z,67.32
2022-12-14T05:06:24.022Z,67.32
2022-12-14T05:07:24.220Z,67.32
2022-12-14T05:08:24.362Z,67.11
2022-12-14T05:09:24.554Z,66.79
2022-12-14T05:10:24.755Z,66.58
2022-12-14T05:11:53.082Z,66.58
2022-12-14T05:12:26.079Z,66.69
2022-12-14T05:13:25.568Z,66.69
2022-12-14T05:14:25.432Z,66.69
2022-12-14T05:15:25.641Z,66.58
2022-12-14T05:16:25.827Z,66.58
2022-12-14T05:17:25.951Z,66.37
2022-12-14T05:18:26.142Z,66.58
2022-12-14T05:19:26.455Z,66.58
2022-12-14T05:20:26.510Z,66.58
2022-12-14T05:21:26.675Z,66.69
2022-12-14T05:22:26.830Z,66.58
2022-12-14T05:23:27.299Z,66.72
2022-12-14T05:24:27.184Z,66.72
2022-12-14T05:25:27.377Z,66.69
2022-12-14T05:26:27.583Z,66.61
2022-12-14T05:27:27.699Z,66.61
2022-12-14T05:28:27.886Z,66.72
2022-12-14T05:29:28.066Z,66.82
2022-12-14T05:30:28.312Z,66.93
2022-12-14T05:31:28.427Z,66.93
2022-12-14T05:32:28.607Z,67.03
2022-12-14T05:33:30.311Z,67.14
2022-12-14T05:34:28.988Z,67.35
2022-12-14T05:35:29.138Z,67.35
2022-12-14T05:36:29.327Z,67.35
2022-12-14T05:37:29.477Z,67.35
2022-12-14T05:38:29.683Z,67.25
2022-12-14T05:39:29.825Z,67.14
2022-12-14T05:40:30.016Z,67.14
2022-12-14T05:41:30.205Z,67.14
2022-12-14T05:42:30.395Z,67.14
2022-12-14T05:43:30.900Z,67.35
2022-12-14T05:44:30.785Z,67.35
2022-12-14T05:45:30.976Z,67.46
2022-12-14T05:46:31.125Z,67.35
2022-12-14T05:47:31.274Z,67.35
2022-12-14T05:48:31.472Z,67.35
2022-12-14T05:49:31.642Z,67.43
2022-12-14T05:50:31.852Z,67.22
2022-12-14T05:51:32.001Z,67.22
2022-12-14T05:52:32.196Z,67.32
2022-12-14T05:53:32.382Z,67.54
2022-12-14T05:54:32.563Z,67.32
2022-12-14T05:55:32.772Z,67.32
2022-12-14T05:56:32.937Z,67.43
2022-12-14T05:57:33.109Z,67.43
2022-12-14T05:58:33.291Z,67.22
2022-12-14T05:59:33.473Z,66.90
2022-12-14T06:00:33.684Z,66.69
2022-12-14T06:01:33.927Z,66.69
2022-12-14T06:02:34.091Z,66.69
2022-12-14T06:03:34.180Z,66.79
2022-12-14T06:04:34.431Z,66.69
2022-12-14T06:05:34.569Z,66.93
2022-12-14T06:06:34.713Z,66.82
2022-12-14T06:07:34.890Z,66.90
2022-12-14T06:08:35.080Z,66.82
2022-12-14T06:09:35.270Z,66.69
2022-12-14T06:10:35.478Z,66.79
2022-12-14T06:11:35.649Z,66.82
2022-12-14T06:12:35.800Z,66.93
2022-12-14T06:13:35.958Z,66.93
2022-12-14T06:14:36.138Z,66.93
2022-12-14T06:15:36.411Z,66.93
2022-12-14T06:16:36.507Z,66.93
2022-12-14T06:17:36.659Z,67.03
2022-12-14T06:18:36.835Z,66.93
2022-12-14T06:19:37.026Z,67.03
2022-12-14T06:20:37.216Z,67.03
2022-12-14T06:21:37.366Z,66.90
2022-12-14T06:22:40.423Z,66.82
2022-12-14T06:23:38.733Z,66.93
2022-12-14T06:24:37.897Z,66.93
2022-12-14T06:25:38.102Z,66.82
2022-12-14T06:26:38.266Z,66.82
2022-12-14T06:27:38.426Z,66.61
2022-12-14T06:28:38.617Z,66.48
2022-12-14T06:29:38.785Z,66.48
2022-12-14T06:30:39.028Z,66.37
2022-12-14T06:31:39.148Z,66.48
2022-12-14T06:32:39.335Z,66.48
2022-12-14T06:33:39.525Z,66.40
2022-12-14T06:34:42.291Z,66.40
2022-12-14T06:35:39.902Z,66.61
2022-12-14T06:36:40.023Z,66.61
2022-12-14T06:37:40.184Z,66.61
2022-12-14T06:38:40.364Z,66.61
2022-12-14T06:39:40.523Z,66.51
2022-12-14T06:40:40.704Z,66.61
2022-12-14T06:41:40.872Z,66.51
2022-12-14T06:42:41.093Z,66.61
2022-12-14T06:43:41.203Z,66.51
2022-12-14T06:44:41.393Z,66.61
2022-12-14T06:45:41.552Z,66.61
2022-12-14T06:46:41.787Z,66.64
2022-12-14T06:47:41.890Z,66.72
2022-12-14T06:48:42.058Z,66.85
2022-12-14T06:49:42.220Z,66.85
2022-12-14T06:50:42.430Z,66.93
2022-12-14T06:51:42.575Z,66.96
2022-12-14T06:52:42.739Z,66.85
2022-12-14T06:53:42.929Z,66.85
2022-12-14T06:54:43.081Z,66.75
2022-12-14T06:55:43.288Z,66.85
2022-12-14T06:56:43.419Z,66.96
2022-12-14T06:57:43.592Z,66.85
2022-12-14T06:58:43.769Z,66.85
2022-12-14T06:59:43.961Z,67.07
2022-12-14T07:00:44.166Z,66.96
2022-12-14T07:01:44.429Z,67.28
2022-12-14T07:02:44.601Z,67.28
2022-12-14T07:03:44.689Z,67.17
2022-12-14T07:04:44.798Z,67.28
2022-12-14T07:05:48.960Z,67.28
2022-12-14T07:06:45.137Z,67.17
2022-12-14T07:07:45.315Z,67.28
2022-12-14T07:08:45.478Z,67.17
2022-12-14T07:09:45.674Z,67.28
2022-12-14T07:10:45.835Z,67.38
2022-12-14T07:11:45.985Z,67.17
2022-12-14T07:12:46.156Z,67.28
2022-12-14T07:13:48.879Z,67.38
2022-12-14T07:14:46.506Z,67.57
2022-12-14T07:15:46.705Z,67.35
2022-12-14T07:16:48.722Z,67.46
2022-12-14T07:17:47.025Z,67.46
2022-12-14T07:18:47.193Z,67.46
2022-12-14T07:19:49.267Z,67.25
2022-12-14T07:20:47.543Z,67.35
2022-12-14T07:21:47.705Z,67.03
2022-12-14T07:22:49.061Z,66.51
2022-12-14T07:23:48.037Z,66.40
2022-12-14T07:24:48.227Z,66.51
2022-12-14T07:25:48.395Z,66.40
2022-12-14T07:26:48.577Z,66.51
2022-12-14T07:27:48.722Z,66.27
2022-12-14T07:28:48.903Z,66.37
2022-12-14T07:29:49.085Z,66.48
2022-12-14T07:30:49.336Z,66.27
2022-12-14T07:31:49.653Z,66.48
2022-12-14T07:32:49.582Z,66.16
2022-12-14T07:33:49.748Z,66.16
2022-12-14T07:34:49.910Z,66.27
2022-12-14T07:35:50.089Z,66.16
2022-12-14T07:36:50.251Z,66.48
2022-12-14T07:37:50.429Z,66.27
2022-12-14T07:38:50.599Z,66.24
2022-12-14T07:39:50.767Z,66.45
2022-12-14T07:40:51.299Z,66.24
2022-12-14T07:41:51.129Z,66.13
2022-12-14T07:42:51.304Z,66.03
2022-12-14T07:43:51.530Z,65.92
2022-12-14T07:44:51.651Z,65.92
2022-12-14T07:45:51.838Z,66.03
2022-12-14T07:46:52.059Z,66.03
2022-12-14T07:47:52.184Z,65.92
2022-12-14T07:48:52.346Z,66.03
2022-12-14T07:49:52.528Z,65.81
2022-12-14T07:50:52.747Z,65.60
2022-12-14T07:51:52.887Z,65.50
2022-12-14T07:52:53.076Z,65.15
2022-12-14T07:53:53.257Z,65.05
2022-12-14T07:54:53.465Z,65.26
2022-12-14T07:55:53.626Z,65.26
2022-12-14T07:56:53.775Z,65.26
2022-12-14T07:57:53.954Z,65.47
2022-12-14T07:58:54.154Z,65.36
2022-12-14T07:59:57.393Z,65.58
2022-12-14T08:00:54.504Z,65.47
2022-12-14T08:01:54.812Z,65.05
2022-12-14T08:02:54.888Z,64.94
2022-12-14T08:03:55.048Z,65.05
2022-12-14T08:04:55.263Z,65.26
2022-12-14T08:05:55.383Z,65.36
2022-12-14T08:06:55.564Z,65.47
2022-12-14T08:07:55.763Z,65.33
2022-12-14T08:08:55.934Z,65.23
2022-12-14T08:09:56.064Z,65.12
2022-12-14T08:10:56.255Z,64.91
2022-12-14T08:11:56.413Z,64.91
2022-12-14T08:12:56.602Z,64.81
2022-12-14T08:13:56.741Z,64.81
2022-12-14T08:14:56.921Z,64.81
2022-12-14T08:15:57.130Z,64.91
2022-12-14T08:16:57.274Z,64.70
2022-12-14T08:17:57.460Z,64.81
2022-12-14T08:18:57.673Z,64.70
2022-12-14T08:19:57.800Z,64.81
2022-12-14T08:20:57.990Z,64.81
2022-12-14T08:21:58.202Z,64.88
2022-12-14T08:22:58.390Z,64.67
2022-12-14T08:23:58.537Z,64.57
2022-12-14T08:24:58.708Z,64.57
2022-12-14T08:25:58.886Z,64.57
2022-12-14T08:26:59.056Z,64.25
2022-12-14T08:27:59.221Z,64.57
2022-12-14T08:28:59.398Z,64.54
2022-12-14T08:29:59.567Z,64.32
2022-12-14T08:30:59.806Z,64.01
2022-12-14T08:31:59.912Z,64.22
2022-12-14T08:33:00.096Z,64.12
2022-12-14T08:34:00.257Z,64.32
2022-12-14T08:35:00.450Z,64.32
2022-12-14T08:36:00.636Z,64.19
2022-12-14T08:37:00.804Z,64.09
2022-12-14T08:38:01.025Z,64.09
2022-12-14T08:39:01.166Z,64.09
2022-12-14T08:40:01.339Z,63.77
2022-12-14T08:41:01.515Z,63.67
2022-12-14T08:42:01.687Z,63.35
2022-12-14T08:43:01.883Z,63.56
2022-12-14T08:44:02.035Z,63.67
2022-12-14T08:45:02.206Z,63.67
2022-12-14T08:46:02.414Z,63.75
2022-12-14T08:47:02.590Z,63.43
2022-12-14T08:48:02.743Z,63.53
2022-12-14T08:49:02.923Z,63.64
2022-12-14T08:50:03.082Z,63.64
2022-12-14T08:51:03.266Z,63.64
2022-12-14T08:52:03.470Z,63.43
2022-12-14T08:53:03.625Z,63.40
2022-12-14T08:54:03.792Z,63.40
2022-12-14T08:55:04.008Z,63.29
2022-12-14T08:56:04.182Z,63.08
2022-12-14T08:57:04.341Z,63.08
2022-12-14T08:58:04.513Z,62.87
2022-12-14T08:59:04.681Z,62.87
2022-12-14T09:00:04.860Z,63.06
2022-12-14T09:01:05.128Z,62.53
2022-12-14T09:02:05.282Z,62.53
2022-12-14T09:03:05.527Z,62.42
2022-12-14T09:04:05.596Z,61.98
2022-12-14T09:05:05.760Z,61.45
2022-12-14T09:06:05.936Z,61.66
2022-12-14T09:07:06.094Z,61.55
2022-12-14T09:08:06.287Z,61.63
2022-12-14T09:09:11.897Z,61.60
2022-12-14T09:10:07.619Z,60.87
2022-12-14T09:11:06.831Z,60.66
2022-12-14T09:12:06.968Z,60.63
2022-12-14T09:13:07.152Z,60.08
2022-12-14T09:14:07.319Z,59.56
2022-12-14T09:15:07.478Z,59.66
2022-12-14T09:16:07.679Z,59.69
2022-12-14T09:17:07.822Z,60.11
2022-12-14T09:18:07.978Z,60.42
2022-12-14T09:19:08.142Z,60.21
2022-12-14T09:20:08.321Z,60.08
2022-12-14T09:21:08.508Z,59.87
2022-12-14T09:22:08.740Z,59.63
2022-12-14T09:23:08.834Z,59.42
2022-12-14T09:24:08.996Z,59.42
2022-12-14T09:25:09.181Z,59.63
2022-12-14T09:26:09.346Z,59.66
2022-12-14T09:27:09.528Z,59.77
2022-12-14T09:28:09.697Z,59.97
2022-12-14T09:29:09.878Z,59.97
2022-12-14T09:30:10.034Z,60.08
2022-12-14T09:31:10.292Z,60.29
2022-12-14T09:32:10.378Z,60.39
2022-12-14T09:33:10.553Z,60.16
2022-12-14T09:34:10.718Z,60.05
2022-12-14T09:35:10.886Z,59.74
2022-12-14T09:36:11.088Z,59.92
2022-12-14T09:37:11.243Z,60.03
2022-12-14T09:38:11.423Z,60.13
2022-12-14T09:39:11.594Z,60.24
2022-12-14T09:40:11.773Z,60.34
2022-12-14T09:41:11.963Z,60.03
2022-12-14T09:42:12.144Z,59.92
2022-12-14T09:43:12.313Z,59.92
2022-12-14T09:44:17.904Z,59.92
2022-12-14T09:45:13.671Z,60.13
2022-12-14T09:46:12.891Z,60.34
2022-12-14T09:47:13.022Z,60.24
2022-12-14T09:48:13.196Z,60.24
2022-12-14T09:49:13.360Z,60.24
2022-12-14T09:50:13.555Z,60.55
2022-12-14T09:51:13.762Z,60.24
2022-12-14T09:52:13.902Z,60.89
2022-12-14T09:53:14.061Z,60.76
2022-12-14T09:54:14.231Z,60.55
2022-12-14T09:55:14.404Z,60.65
2022-12-14T09:56:14.602Z,60.65
2022-12-14T09:57:14.732Z,61.07
2022-12-14T09:58:14.922Z,61.18
2022-12-14T09:59:15.090Z,61.49
2022-12-14T10:00:15.260Z,61.39
2022-12-14T10:01:15.499Z,60.42
2022-12-14T10:02:30.988Z,60.65
2022-12-14T10:03:16.892Z,60.83
2022-12-14T10:04:16.015Z,60.83
2022-12-14T10:05:16.112Z,60.94
2022-12-14T10:06:16.290Z,60.73
2022-12-14T10:07:16.469Z,60.71
2022-12-14T10:08:16.669Z,60.81
2022-12-14T10:09:16.820Z,61.02
2022-12-14T10:10:17.010Z,60.71
2022-12-14T10:11:17.195Z,60.71
2022-12-14T10:12:17.346Z,60.60
2022-12-14T10:13:17.529Z,60.60
2022-12-14T10:14:17.697Z,60.49
2022-12-14T10:15:17.848Z,60.26
2022-12-14T10:16:18.055Z,60.47
2022-12-14T10:17:18.196Z,60.15
2022-12-14T10:18:49.363Z,60.47
2022-12-14T10:19:19.536Z,60.57
2022-12-14T10:20:18.736Z,60.78
2022-12-14T10:21:18.935Z,60.88
2022-12-14T10:22:19.115Z,60.78
2022-12-14T10:23:22.822Z,60.57
2022-12-14T10:24:19.428Z,60.26
2022-12-14T10:25:19.595Z,60.02
2022-12-14T10:26:19.814Z,60.13
2022-12-14T10:27:19.935Z,60.23
2022-12-14T10:28:20.125Z,60.75
2022-12-14T10:29:20.294Z,60.75
2022-12-14T10:30:20.455Z,60.75
2022-12-14T10:31:20.658Z,60.13
2022-12-14T10:32:20.815Z,60.02
2022-12-14T10:33:20.977Z,60.13
2022-12-14T10:34:21.144Z,60.13
2022-12-14T10:35:21.320Z,60.44
2022-12-14T10:36:21.513Z,60.44
2022-12-14T10:37:21.692Z,60.33
2022-12-14T10:38:21.857Z,60.86
2022-12-14T10:39:22.013Z,61.17
2022-12-14T10:40:31.117Z,60.96
2022-12-14T10:41:23.394Z,60.65
2022-12-14T10:42:22.572Z,60.75
2022-12-14T10:43:22.743Z,60.93
2022-12-14T10:44:22.929Z,61.04
2022-12-14T10:46:24.400Z,60.93
2022-12-14T10:47:23.473Z,60.83
2022-12-14T10:48:23.650Z,61.04
2022-12-14T10:49:23.807Z,61.04
2022-12-14T10:50:24.010Z,60.93
2022-12-14T10:51:24.156Z,60.31
2022-12-14T10:52:24.330Z,60.21
2022-12-14T10:53:24.469Z,60.41
2022-12-14T10:54:24.659Z,61.04
2022-12-14T10:55:24.819Z,61.04
2022-12-14T10:56:25.056Z,60.93
2022-12-14T10:57:25.180Z,60.72
2022-12-14T10:58:25.320Z,61.15
2022-12-14T10:59:25.497Z,61.15
2022-12-14T11:00:26.059Z,61.04
2022-12-14T11:01:25.948Z,60.83
2022-12-14T11:02:26.238Z,61.25
2022-12-14T11:03:26.370Z,61.46
2022-12-14T11:04:26.368Z,61.56
2022-12-14T11:05:31.094Z,61.46
2022-12-14T11:06:27.705Z,61.88
2022-12-14T11:07:26.890Z,61.66
2022-12-14T11:08:27.335Z,61.98
2022-12-14T11:09:27.326Z,62.08
2022-12-14T11:10:27.386Z,61.46
2022-12-14T11:11:27.661Z,60.83
2022-12-14T11:12:27.777Z,61.04
2022-12-14T11:13:27.953Z,60.93
2022-12-14T11:14:28.136Z,61.04
2022-12-14T11:15:28.315Z,61.46
2022-12-14T11:16:35.411Z,61.56
2022-12-14T11:17:29.781Z,61.46
2022-12-14T11:18:29.355Z,61.35
2022-12-14T11:19:29.037Z,61.46
2022-12-14T11:20:29.224Z,61.25
2022-12-14T11:21:29.414Z,60.83
2022-12-14T11:22:29.599Z,61.04
2022-12-14T11:23:29.746Z,60.93
2022-12-14T11:24:29.954Z,60.93
2022-12-14T11:25:30.100Z,60.80
2022-12-14T11:26:30.264Z,60.70
2022-12-14T11:27:30.473Z,60.70
2022-12-14T11:28:36.522Z,60.59
2022-12-14T11:29:31.786Z,60.70
2022-12-14T11:30:30.991Z,60.49
2022-12-14T11:31:31.100Z,60.70
2022-12-14T11:32:31.304Z,60.91
2022-12-14T11:33:31.519Z,61.01
2022-12-14T11:34:31.632Z,61.01
2022-12-14T11:35:31.802Z,60.59
2022-12-14T11:36:32.003Z,60.91
2022-12-14T11:37:32.215Z,61.01
2022-12-14T11:38:32.848Z,60.80
2022-12-14T11:39:32.492Z,60.70
2022-12-14T11:40:32.681Z,60.80
2022-12-14T11:41:32.831Z,60.70
2022-12-14T11:42:33.041Z,60.80
2022-12-14T11:43:33.181Z,60.80
2022-12-14T11:44:33.391Z,60.49
2022-12-14T11:45:33.552Z,60.70
2022-12-14T11:46:33.804Z,60.80
2022-12-14T11:47:33.948Z,60.91
2022-12-14T11:48:34.179Z,60.98
2022-12-14T11:49:34.278Z,61.08
2022-12-14T11:50:34.489Z,61.08
2022-12-14T11:51:34.632Z,60.88
2022-12-14T11:52:34.822Z,60.53
2022-12-14T11:53:34.971Z,60.12
2022-12-14T11:54:35.162Z,60.15
2022-12-14T11:55:35.348Z,60.46
2022-12-14T11:56:36.512Z,60.33
2022-12-14T11:57:35.733Z,60.53
2022-12-14T11:58:35.955Z,60.85
2022-12-14T11:59:36.059Z,61.27
2022-12-14T12:00:36.221Z,61.06
2022-12-14T12:01:36.387Z,60.20
2022-12-14T12:02:36.596Z,60.10
2022-12-14T12:03:36.818Z,59.88
2022-12-14T12:04:36.955Z,59.99
2022-12-14T12:05:37.103Z,60.10
2022-12-14T12:06:37.317Z,60.61
2022-12-14T12:07:37.505Z,60.51
2022-12-14T12:08:37.691Z,60.20
2022-12-14T12:09:37.810Z,60.41
2022-12-14T12:10:38.016Z,60.41
2022-12-14T12:11:38.137Z,60.30
2022-12-14T12:12:38.305Z,59.67
2022-12-14T12:13:38.458Z,60.10
2022-12-14T12:14:38.646Z,60.41
2022-12-14T12:15:38.841Z,60.41
2022-12-14T12:16:38.970Z,60.51
2022-12-14T12:17:39.150Z,60.20
2022-12-14T12:18:45.837Z,60.30
2022-12-14T12:19:40.489Z,60.41
2022-12-14T12:20:39.654Z,60.61
2022-12-14T12:21:39.905Z,59.99
2022-12-14T12:22:40.627Z,60.30
2022-12-14T12:23:40.834Z,60.30
2022-12-14T12:25:01.115Z,60.51
2022-12-14T12:25:41.569Z,60.93
2022-12-14T12:26:40.771Z,61.35
2022-12-14T12:27:40.893Z,61.35
2022-12-14T12:28:41.063Z,61.03
2022-12-14T12:29:41.296Z,60.64
2022-12-14T12:30:41.470Z,61.06
2022-12-14T12:31:41.568Z,61.47
2022-12-14T12:32:41.674Z,61.16
2022-12-14T12:33:41.815Z,61.30
2022-12-14T12:34:42.013Z,61.92
2022-12-14T12:35:42.192Z,62.02
2022-12-14T12:37:02.813Z,62.13
2022-12-14T12:37:43.562Z,62.34
2022-12-14T12:38:42.741Z,62.13
2022-12-14T12:39:43.894Z,61.92
2022-12-14T12:40:43.063Z,62.02
2022-12-14T12:41:43.223Z,62.02
2022-12-14T12:42:43.411Z,62.13
2022-12-14T12:43:43.616Z,62.24
2022-12-14T12:44:44.740Z,62.48
2022-12-14T12:45:44.910Z,62.48
2022-12-14T12:47:14.951Z,62.58
2022-12-14T12:47:47.660Z,62.89
2022-12-14T12:48:44.459Z,62.99
2022-12-14T12:49:44.649Z,62.79
2022-12-14T12:50:44.799Z,62.99
2022-12-14T12:51:45.969Z,63.10
2022-12-14T12:52:45.168Z,63.10
2022-12-14T12:53:45.310Z,63.23
2022-12-14T12:54:45.509Z,63.34
2022-12-14T12:55:45.688Z,63.44